sensor_id;sensor_type;location;lat;lon;timestamp;pressure;altitude;pressure_sealevel;temperature;humidity
49979;BME280;35869;50.990;6.962;2023-04-29T00:00:50;101025.38;;;13.31;96.25
49979;BME280;35869;50.990;6.962;2023-04-29T00:05:50;101023.47;;;13.16;93.94
49979;BME280;35869;50.990;6.962;2023-04-29T00:10:50;101025.09;;;13.18;96.63
49979;BME280;35869;50.990;6.962;2023-04-29T00:15:50;101014.28;;;13.08;95.61
49979;BME280;35869;50.990;6.962;2023-04-29T00:20:50;101025.09;;;13.18;93.47
49979;BME280;35869;50.990;6.962;2023-04-29T00:25:51;101024.63;;;13.10;93.64
49979;BME280;35869;50.990;6.962;2023-04-29T00:30:51;101033.28;;;12.93;94.18
49979;BME280;35869;50.990;6.962;2023-04-29T00:35:51;101032.31;;;12.96;95.37
49979;BME280;35869;50.990;6.962;2023-04-29T00:40:51;101037.19;;;12.85;93.64
49979;BME280;35869;50.990;6.962;2023-04-29T00:45:52;101046.53;;;12.71;93.22
49979;BME280;35869;50.990;6.962;2023-04-29T00:50:52;101039.41;;;12.75;92.35
49979;BME280;35869;50.990;6.962;2023-04-29T00:55:52;101049.59;;;12.62;92.49
49979;BME280;35869;50.990;6.962;2023-04-29T01:00:52;101051.56;;;12.57;93.30
49979;BME280;35869;50.990;6.962;2023-04-29T01:06:00;101053.69;;;12.49;94.48
49979;BME280;35869;50.990;6.962;2023-04-29T01:11:10;101048.31;;;12.52;93.50
49979;BME280;35869;50.990;6.962;2023-04-29T01:16:33;101064.31;;;12.44;92.86
49979;BME280;35869;50.990;6.962;2023-04-29T01:21:45;101069.88;;;12.37;94.31
49979;BME280;35869;50.990;6.962;2023-04-29T01:26:52;101079.88;;;12.46;93.52
49979;BME280;35869;50.990;6.962;2023-04-29T01:32:03;101071.88;;;12.32;94.95
49979;BME280;35869;50.990;6.962;2023-04-29T01:37:18;101079.25;;;12.22;94.40
49979;BME280;35869;50.990;6.962;2023-04-29T01:42:23;101085.59;;;12.16;95.86
49979;BME280;35869;50.990;6.962;2023-04-29T01:47:28;101089.75;;;12.20;96.99
49979;BME280;35869;50.990;6.962;2023-04-29T01:52:28;101093.41;;;12.16;97.96
49979;BME280;35869;50.990;6.962;2023-04-29T01:57:28;101097.97;;;12.11;95.96
49979;BME280;35869;50.990;6.962;2023-04-29T02:02:28;101099.72;;;12.11;95.68
49979;BME280;35869;50.990;6.962;2023-04-29T02:07:29;101094.22;;;11.98;97.45
49979;BME280;35869;50.990;6.962;2023-04-29T02:12:29;101104.44;;;12.03;97.21
49979;BME280;35869;50.990;6.962;2023-04-29T02:17:29;101115.13;;;11.96;95.95
49979;BME280;35869;50.990;6.962;2023-04-29T02:22:29;101109.78;;;11.99;97.42
49979;BME280;35869;50.990;6.962;2023-04-29T02:27:29;101122.06;;;11.75;98.14
49979;BME280;35869;50.990;6.962;2023-04-29T02:32:30;101123.47;;;11.84;98.44
49979;BME280;35869;50.990;6.962;2023-04-29T02:37:30;101130.72;;;11.76;97.84
49979;BME280;35869;50.990;6.962;2023-04-29T02:42:30;101134.97;;;11.79;98.48
49979;BME280;35869;50.990;6.962;2023-04-29T02:47:30;101138.47;;;11.78;100.00
49979;BME280;35869;50.990;6.962;2023-04-29T02:52:31;101138.81;;;11.70;99.50
49979;BME280;35869;50.990;6.962;2023-04-29T02:57:31;101142.06;;;11.75;97.89
49979;BME280;35869;50.990;6.962;2023-04-29T03:02:31;101144.38;;;11.61;100.00
49979;BME280;35869;50.990;6.962;2023-04-29T03:07:31;101147.47;;;11.50;100.00
49979;BME280;35869;50.990;6.962;2023-04-29T03:12:31;101150.94;;;11.49;100.00
49979;BME280;35869;50.990;6.962;2023-04-29T03:17:32;101151.16;;;11.44;100.00
49979;BME280;35869;50.990;6.962;2023-04-29T03:22:32;101158.81;;;11.27;100.00
49979;BME280;35869;50.990;6.962;2023-04-29T03:27:32;101161.16;;;11.11;100.00
49979;BME280;35869;50.990;6.962;2023-04-29T03:32:32;101164.44;;;11.16;100.00
49979;BME280;35869;50.990;6.962;2023-04-29T03:37:32;101164.03;;;11.26;100.00
49979;BME280;35869;50.990;6.962;2023-04-29T03:42:33;101168.63;;;11.20;100.00
49979;BME280;35869;50.990;6.962;2023-04-29T03:47:33;101172.47;;;11.10;100.00
49979;BME280;35869;50.990;6.962;2023-04-29T03:52:33;101172.56;;;11.07;100.00
49979;BME280;35869;50.990;6.962;2023-04-29T03:57:33;101174.50;;;11.02;100.00
49979;BME280;35869;50.990;6.962;2023-04-29T04:02:33;101184.19;;;10.99;100.00
49979;BME280;35869;50.990;6.962;2023-04-29T04:07:34;101180.19;;;10.90;100.00
49979;BME280;35869;50.990;6.962;2023-04-29T04:12:34;101192.91;;;10.98;100.00
49979;BME280;35869;50.990;6.962;2023-04-29T04:17:34;101199.91;;;10.95;100.00
49979;BME280;35869;50.990;6.962;2023-04-29T04:22:34;101200.03;;;10.92;100.00
49979;BME280;35869;50.990;6.962;2023-04-29T04:27:34;101209.53;;;10.93;100.00
49979;BME280;35869;50.990;6.962;2023-04-29T04:32:35;101211.59;;;10.85;100.00
49979;BME280;35869;50.990;6.962;2023-04-29T04:37:35;101226.16;;;10.89;100.00
49979;BME280;35869;50.990;6.962;2023-04-29T04:42:35;101227.53;;;10.76;100.00
49979;BME280;35869;50.990;6.962;2023-04-29T04:47:36;101243.41;;;10.68;100.00
49979;BME280;35869;50.990;6.962;2023-04-29T04:52:36;101245.19;;;10.66;100.00
49979;BME280;35869;50.990;6.962;2023-04-29T04:57:36;101243.50;;;10.65;100.00
49979;BME280;35869;50.990;6.962;2023-04-29T05:02:36;101257.25;;;10.69;100.00
49979;BME280;35869;50.990;6.962;2023-04-29T05:07:36;101266.44;;;10.54;100.00
49979;BME280;35869;50.990;6.962;2023-04-29T05:12:37;101261.13;;;10.57;100.00
49979;BME280;35869;50.990;6.962;2023-04-29T05:17:37;101279.19;;;10.62;100.00
49979;BME280;35869;50.990;6.962;2023-04-29T05:22:37;101284.81;;;10.50;100.00
49979;BME280;35869;50.990;6.962;2023-04-29T05:27:37;101288.91;;;10.55;100.00
49979;BME280;35869;50.990;6.962;2023-04-29T05:32:37;101298.69;;;10.49;100.00
49979;BME280;35869;50.990;6.962;2023-04-29T05:37:38;101293.13;;;10.34;100.00
49979;BME280;35869;50.990;6.962;2023-04-29T05:42:38;101298.16;;;10.39;100.00
49979;BME280;35869;50.990;6.962;2023-04-29T05:47:38;101310.31;;;10.38;100.00
49979;BME280;35869;50.990;6.962;2023-04-29T05:52:38;101315.50;;;10.38;100.00
49979;BME280;35869;50.990;6.962;2023-04-29T05:57:39;101322.47;;;10.38;100.00
49979;BME280;35869;50.990;6.962;2023-04-29T06:02:39;101334.75;;;10.33;100.00
49979;BME280;35869;50.990;6.962;2023-04-29T06:07:40;101332.84;;;10.38;100.00
49979;BME280;35869;50.990;6.962;2023-04-29T06:12:40;101341.44;;;10.40;100.00
49979;BME280;35869;50.990;6.962;2023-04-29T06:17:40;101350.28;;;10.34;100.00
49979;BME280;35869;50.990;6.962;2023-04-29T06:22:41;101355.41;;;10.36;100.00
49979;BME280;35869;50.990;6.962;2023-04-29T06:27:41;101361.47;;;10.36;100.00
49979;BME280;35869;50.990;6.962;2023-04-29T06:32:41;101365.72;;;10.39;100.00
49979;BME280;35869;50.990;6.962;2023-04-29T06:37:41;101384.72;;;10.41;100.00
49979;BME280;35869;50.990;6.962;2023-04-29T06:42:41;101384.81;;;10.38;100.00
49979;BME280;35869;50.990;6.962;2023-04-29T06:47:42;101388.63;;;10.28;100.00
49979;BME280;35869;50.990;6.962;2023-04-29T06:52:42;101395.22;;;10.38;100.00
49979;BME280;35869;50.990;6.962;2023-04-29T06:57:42;101392.50;;;10.41;100.00
49979;BME280;35869;50.990;6.962;2023-04-29T07:02:42;101404.66;;;10.40;100.00
49979;BME280;35869;50.990;6.962;2023-04-29T07:07:42;101409.09;;;10.37;100.00
49979;BME280;35869;50.990;6.962;2023-04-29T07:12:43;101412.19;;;10.48;100.00
49979;BME280;35869;50.990;6.962;2023-04-29T07:17:43;101417.31;;;10.51;100.00
49979;BME280;35869;50.990;6.962;2023-04-29T07:22:43;101427.56;;;10.54;100.00
49979;BME280;35869;50.990;6.962;2023-04-29T07:27:43;101428.41;;;10.55;100.00
49979;BME280;35869;50.990;6.962;2023-04-29T07:32:44;101435.34;;;10.56;100.00
49979;BME280;35869;50.990;6.962;2023-04-29T07:37:44;101455.13;;;10.60;100.00
49979;BME280;35869;50.990;6.962;2023-04-29T07:42:44;101457.72;;;10.60;100.00
49979;BME280;35869;50.990;6.962;2023-04-29T07:47:44;101447.81;;;10.71;100.00
49979;BME280;35869;50.990;6.962;2023-04-29T07:52:44;101458.06;;;10.76;100.00
49979;BME280;35869;50.990;6.962;2023-04-29T07:57:45;101459.03;;;10.73;100.00
49979;BME280;35869;50.990;6.962;2023-04-29T08:02:45;101458.94;;;10.76;100.00
49979;BME280;35869;50.990;6.962;2023-04-29T08:07:46;101479.28;;;10.63;100.00
49979;BME280;35869;50.990;6.962;2023-04-29T08:12:46;101474.78;;;10.68;100.00
49979;BME280;35869;50.990;6.962;2023-04-29T08:17:47;101474.53;;;10.76;100.00
49979;BME280;35869;50.990;6.962;2023-04-29T08:22:47;101480.16;;;10.89;98.59
49979;BME280;35869;50.990;6.962;2023-04-29T08:27:47;101483.97;;;10.79;100.00
49979;BME280;35869;50.990;6.962;2023-04-29T08:32:47;101487.13;;;10.88;99.83
49979;BME280;35869;50.990;6.962;2023-04-29T08:37:48;101494.00;;;10.89;100.00
49979;BME280;35869;50.990;6.962;2023-04-29T08:42:48;101500.88;;;10.92;100.00
49979;BME280;35869;50.990;6.962;2023-04-29T08:47:49;101499.13;;;10.92;100.00
49979;BME280;35869;50.990;6.962;2023-04-29T08:52:50;101509.97;;;11.05;100.00
49979;BME280;35869;50.990;6.962;2023-04-29T08:57:53;101520.47;;;11.02;100.00
49979;BME280;35869;50.990;6.962;2023-04-29T09:02:54;101527.06;;;11.12;100.00
49979;BME280;35869;50.990;6.962;2023-04-29T09:07:56;101527.75;;;11.17;100.00
49979;BME280;35869;50.990;6.962;2023-04-29T09:12:57;101531.13;;;11.21;99.70
49979;BME280;35869;50.990;6.962;2023-04-29T09:17:57;101538.75;;;11.26;97.93
49979;BME280;35869;50.990;6.962;2023-04-29T09:23:00;101534.72;;;11.17;99.60
49979;BME280;35869;50.990;6.962;2023-04-29T09:28:14;101544.06;;;11.23;98.95
49979;BME280;35869;50.990;6.962;2023-04-29T09:33:14;101549.56;;;11.13;98.46
49979;BME280;35869;50.990;6.962;2023-04-29T09:38:15;101551.75;;;11.26;97.59
49979;BME280;35869;50.990;6.962;2023-04-29T09:43:16;101550.06;;;11.25;95.16
49979;BME280;35869;50.990;6.962;2023-04-29T09:48:17;101553.50;;;11.27;95.86
49979;BME280;35869;50.990;6.962;2023-04-29T09:53:27;101567.03;;;11.36;95.94
49979;BME280;35869;50.990;6.962;2023-04-29T09:58:30;101567.94;;;11.35;94.86
49979;BME280;35869;50.990;6.962;2023-04-29T10:03:33;101575.75;;;11.35;97.29
49979;BME280;35869;50.990;6.962;2023-04-29T10:08:34;101584.59;;;11.30;99.16
49979;BME280;35869;50.990;6.962;2023-04-29T10:13:34;101587.25;;;11.28;97.58
49979;BME280;35869;50.990;6.962;2023-04-29T10:18:35;101579.09;;;11.39;98.77
49979;BME280;35869;50.990;6.962;2023-04-29T10:23:36;101591.69;;;11.26;95.92
49979;BME280;35869;50.990;6.962;2023-04-29T10:28:37;101584.34;;;11.37;98.55
49979;BME280;35869;50.990;6.962;2023-04-29T10:33:41;101598.03;;;11.42;97.81
49979;BME280;35869;50.990;6.962;2023-04-29T10:38:47;101602.94;;;11.27;96.83
49979;BME280;35869;50.990;6.962;2023-04-29T10:43:48;101611.25;;;11.38;99.01
49979;BME280;35869;50.990;6.962;2023-04-29T10:48:50;101605.81;;;11.44;99.57
49979;BME280;35869;50.990;6.962;2023-04-29T10:54:08;101609.63;;;11.34;99.28
49979;BME280;35869;50.990;6.962;2023-04-29T10:59:09;101603.09;;;11.47;99.37
49979;BME280;35869;50.990;6.962;2023-04-29T11:04:09;101613.84;;;11.38;98.41
49979;BME280;35869;50.990;6.962;2023-04-29T11:09:20;101619.91;;;11.38;99.22
49979;BME280;35869;50.990;6.962;2023-04-29T11:19:35;101625.03;;;11.40;99.25
49979;BME280;35869;50.990;6.962;2023-04-29T11:24:35;101623.13;;;11.45;98.53
49979;BME280;35869;50.990;6.962;2023-04-29T11:29:35;101627.44;;;11.46;98.78
49979;BME280;35869;50.990;6.962;2023-04-29T11:34:36;101621.94;;;11.55;95.92
49979;BME280;35869;50.990;6.962;2023-04-29T11:39:36;101628.88;;;11.55;95.39
49979;BME280;35869;50.990;6.962;2023-04-29T11:44:36;101627.03;;;11.58;94.92
49979;BME280;35869;50.990;6.962;2023-04-29T11:49:36;101632.50;;;11.51;95.76
49979;BME280;35869;50.990;6.962;2023-04-29T11:54:37;101635.13;;;11.49;95.24
49979;BME280;35869;50.990;6.962;2023-04-29T11:59:37;101641.66;;;11.62;97.03
49979;BME280;35869;50.990;6.962;2023-04-29T12:04:44;101640.81;;;11.62;95.23
49979;BME280;35869;50.990;6.962;2023-04-29T12:09:45;101644.03;;;11.68;96.59
49979;BME280;35869;50.990;6.962;2023-04-29T12:14:46;101636.94;;;11.73;96.45
49979;BME280;35869;50.990;6.962;2023-04-29T12:19:46;101641.03;;;11.81;95.19
49979;BME280;35869;50.990;6.962;2023-04-29T12:24:47;101641.22;;;11.74;93.91
49979;BME280;35869;50.990;6.962;2023-04-29T12:29:47;101640.78;;;11.88;93.57
49979;BME280;35869;50.990;6.962;2023-04-29T12:34:49;101640.97;;;12.07;93.54
49979;BME280;35869;50.990;6.962;2023-04-29T12:39:50;101642.97;;;12.24;92.24
49979;BME280;35869;50.990;6.962;2023-04-29T12:44:50;101642.06;;;12.25;92.75
49979;BME280;35869;50.990;6.962;2023-04-29T12:49:50;101633.75;;;12.39;92.11
49979;BME280;35869;50.990;6.962;2023-04-29T12:54:51;101638.06;;;12.40;93.34
49979;BME280;35869;50.990;6.962;2023-04-29T12:59:51;101642.47;;;12.61;91.20
49979;BME280;35869;50.990;6.962;2023-04-29T13:04:51;101645.16;;;12.81;89.84
49979;BME280;35869;50.990;6.962;2023-04-29T13:09:51;101647.59;;;12.86;89.71
49979;BME280;35869;50.990;6.962;2023-04-29T13:14:51;101651.97;;;13.07;91.28
49979;BME280;35869;50.990;6.962;2023-04-29T13:19:52;101646.25;;;13.42;87.08
49979;BME280;35869;50.990;6.962;2023-04-29T13:24:52;101645.41;;;13.41;86.68
49979;BME280;35869;50.990;6.962;2023-04-29T13:29:52;101645.88;;;13.51;88.16
49979;BME280;35869;50.990;6.962;2023-04-29T13:34:52;101639.63;;;13.75;84.40
49979;BME280;35869;50.990;6.962;2023-04-29T13:39:52;101639.72;;;13.93;84.36
49979;BME280;35869;50.990;6.962;2023-04-29T13:44:53;101640.41;;;14.17;83.98
49979;BME280;35869;50.990;6.962;2023-04-29T13:49:53;101634.50;;;14.32;84.21
49979;BME280;35869;50.990;6.962;2023-04-29T13:54:53;101638.47;;;14.40;82.84
49979;BME280;35869;50.990;6.962;2023-04-29T13:59:53;101638.25;;;14.45;84.13
49979;BME280;35869;50.990;6.962;2023-04-29T14:04:53;101641.06;;;14.40;83.64
49979;BME280;35869;50.990;6.962;2023-04-29T14:09:54;101644.53;;;14.61;80.71
49979;BME280;35869;50.990;6.962;2023-04-29T14:14:54;101638.66;;;14.56;85.42
49979;BME280;35869;50.990;6.962;2023-04-29T14:19:54;101647.78;;;14.46;87.04
49979;BME280;35869;50.990;6.962;2023-04-29T14:24:54;101644.53;;;14.61;80.85
49979;BME280;35869;50.990;6.962;2023-04-29T14:29:54;101651.88;;;14.72;81.88
49979;BME280;35869;50.990;6.962;2023-04-29T14:34:55;101651.09;;;14.70;83.27
49979;BME280;35869;50.990;6.962;2023-04-29T14:39:55;101659.00;;;14.69;83.98
49979;BME280;35869;50.990;6.962;2023-04-29T14:44:55;101662.28;;;14.55;86.78
49979;BME280;35869;50.990;6.962;2023-04-29T14:49:55;101672.00;;;14.70;82.59
49979;BME280;35869;50.990;6.962;2023-04-29T14:54:55;101675.84;;;14.63;83.37
49979;BME280;35869;50.990;6.962;2023-04-29T14:59:56;101675.47;;;14.71;77.70
49979;BME280;35869;50.990;6.962;2023-04-29T15:04:56;101687.88;;;14.67;82.29
49979;BME280;35869;50.990;6.962;2023-04-29T15:09:56;101696.97;;;14.77;79.88
49979;BME280;35869;50.990;6.962;2023-04-29T15:14:56;101687.06;;;14.65;79.40
49979;BME280;35869;50.990;6.962;2023-04-29T15:19:56;101699.38;;;14.63;83.71
49979;BME280;35869;50.990;6.962;2023-04-29T15:24:57;101686.59;;;14.57;80.80
49979;BME280;35869;50.990;6.962;2023-04-29T15:29:57;101688.34;;;14.75;78.03
49979;BME280;35869;50.990;6.962;2023-04-29T15:34:58;101691.69;;;14.79;79.66
49979;BME280;35869;50.990;6.962;2023-04-29T15:39:59;101682.84;;;14.81;77.43
49979;BME280;35869;50.990;6.962;2023-04-29T15:44:59;101693.09;;;14.67;83.07
49979;BME280;35869;50.990;6.962;2023-04-29T15:49:59;101701.13;;;14.44;84.43
49979;BME280;35869;50.990;6.962;2023-04-29T15:54:59;101704.34;;;14.50;83.36
49979;BME280;35869;50.990;6.962;2023-04-29T16:00:00;101700.75;;;14.32;82.35
49979;BME280;35869;50.990;6.962;2023-04-29T16:05:00;101699.69;;;14.36;84.52
49979;BME280;35869;50.990;6.962;2023-04-29T16:10:00;101704.50;;;14.46;82.91
49979;BME280;35869;50.990;6.962;2023-04-29T16:15:00;101710.41;;;14.30;84.44
49979;BME280;35869;50.990;6.962;2023-04-29T16:20:01;101711.41;;;14.28;83.06
49979;BME280;35869;50.990;6.962;2023-04-29T16:25:01;101706.31;;;14.25;84.45
49979;BME280;35869;50.990;6.962;2023-04-29T16:30:01;101707.44;;;14.19;84.98
49979;BME280;35869;50.990;6.962;2023-04-29T16:35:01;101704.06;;;14.36;79.49
49979;BME280;35869;50.990;6.962;2023-04-29T16:40:02;101700.66;;;14.34;83.19
49979;BME280;35869;50.990;6.962;2023-04-29T16:45:02;101708.00;;;14.26;84.80
49979;BME280;35869;50.990;6.962;2023-04-29T16:50:03;101710.94;;;14.18;84.19
49979;BME280;35869;50.990;6.962;2023-04-29T16:55:04;101714.38;;;14.39;79.51
49979;BME280;35869;50.990;6.962;2023-04-29T17:00:05;101715.91;;;14.24;82.72
49979;BME280;35869;50.990;6.962;2023-04-29T17:05:06;101708.06;;;14.24;83.95
49979;BME280;35869;50.990;6.962;2023-04-29T17:10:07;101713.25;;;14.26;83.50
49979;BME280;35869;50.990;6.962;2023-04-29T17:15:07;101710.63;;;14.26;82.52
49979;BME280;35869;50.990;6.962;2023-04-29T17:20:08;101717.34;;;14.31;76.96
49979;BME280;35869;50.990;6.962;2023-04-29T17:25:08;101714.34;;;14.20;82.57
49979;BME280;35869;50.990;6.962;2023-04-29T17:30:09;101710.34;;;14.11;84.24
49979;BME280;35869;50.990;6.962;2023-04-29T17:35:09;101709.13;;;14.20;82.98
49979;BME280;35869;50.990;6.962;2023-04-29T17:40:09;101711.31;;;14.29;79.72
49979;BME280;35869;50.990;6.962;2023-04-29T17:45:10;101710.41;;;14.30;81.35
49979;BME280;35869;50.990;6.962;2023-04-29T17:50:10;101729.63;;;14.29;80.64
49979;BME280;35869;50.990;6.962;2023-04-29T17:55:10;101722.97;;;14.22;79.63
49979;BME280;35869;50.990;6.962;2023-04-29T18:00:11;101723.22;;;14.16;82.40
49979;BME280;35869;50.990;6.962;2023-04-29T18:05:11;101730.75;;;14.03;84.17
49979;BME280;35869;50.990;6.962;2023-04-29T18:10:11;101713.38;;;14.02;84.51
49979;BME280;35869;50.990;6.962;2023-04-29T18:15:12;101726.63;;;13.98;83.50
49979;BME280;35869;50.990;6.962;2023-04-29T18:20:12;101729.50;;;13.92;86.04
49979;BME280;35869;50.990;6.962;2023-04-29T18:25:12;101721.19;;;13.82;86.64
49979;BME280;35869;50.990;6.962;2023-04-29T18:30:12;101728.34;;;13.78;87.28
49979;BME280;35869;50.990;6.962;2023-04-29T18:35:13;101738.31;;;13.69;87.58
49979;BME280;35869;50.990;6.962;2023-04-29T18:40:13;101732.56;;;13.60;88.16
49979;BME280;35869;50.990;6.962;2023-04-29T18:45:13;101731.94;;;13.54;87.71
49979;BME280;35869;50.990;6.962;2023-04-29T18:50:13;101738.31;;;13.47;88.09
49979;BME280;35869;50.990;6.962;2023-04-29T18:55:13;101744.63;;;13.41;87.97
49979;BME280;35869;50.990;6.962;2023-04-29T19:00:14;101742.25;;;13.35;88.35
49979;BME280;35869;50.990;6.962;2023-04-29T19:05:14;101742.50;;;13.29;88.79
49979;BME280;35869;50.990;6.962;2023-04-29T19:10:14;101747.13;;;13.22;89.37
49979;BME280;35869;50.990;6.962;2023-04-29T19:15:16;101747.41;;;13.15;89.90
49979;BME280;35869;50.990;6.962;2023-04-29T19:20:16;101759.84;;;13.08;90.12
49979;BME280;35869;50.990;6.962;2023-04-29T19:25:16;101760.06;;;13.02;90.11
49979;BME280;35869;50.990;6.962;2023-04-29T19:30:16;101759.38;;;12.97;90.76
49979;BME280;35869;50.990;6.962;2023-04-29T19:35:17;101770.06;;;12.91;91.45
49979;BME280;35869;50.990;6.962;2023-04-29T19:40:17;101772.88;;;12.85;89.96
49979;BME280;35869;50.990;6.962;2023-04-29T19:45:17;101767.03;;;12.78;90.74
49979;BME280;35869;50.990;6.962;2023-04-29T19:50:17;101768.91;;;12.74;91.62
49979;BME280;35869;50.990;6.962;2023-04-29T19:55:18;101775.13;;;12.70;92.38
49979;BME280;35869;50.990;6.962;2023-04-29T20:00:18;101776.28;;;12.63;93.17
49979;BME280;35869;50.990;6.962;2023-04-29T20:05:18;101776.38;;;12.60;91.45
49979;BME280;35869;50.990;6.962;2023-04-29T20:10:18;101789.47;;;12.59;91.19
49979;BME280;35869;50.990;6.962;2023-04-29T20:15:19;101788.84;;;12.52;93.19
49979;BME280;35869;50.990;6.962;2023-04-29T20:20:19;101790.66;;;12.50;93.02
49979;BME280;35869;50.990;6.962;2023-04-29T20:25:19;101794.25;;;12.46;94.59
49979;BME280;35869;50.990;6.962;2023-04-29T20:30:19;101796.97;;;12.43;93.98
49979;BME280;35869;50.990;6.962;2023-04-29T20:35:20;101794.47;;;12.40;94.63
49979;BME280;35869;50.990;6.962;2023-04-29T20:40:20;101802.44;;;12.35;94.49
49979;BME280;35869;50.990;6.962;2023-04-29T20:45:20;101804.34;;;12.32;95.01
49979;BME280;35869;50.990;6.962;2023-04-29T20:50:20;101810.47;;;12.29;94.55
49979;BME280;35869;50.990;6.962;2023-04-29T20:55:20;101816.69;;;12.25;94.54
49979;BME280;35869;50.990;6.962;2023-04-29T21:00:21;101815.16;;;12.19;94.99
49979;BME280;35869;50.990;6.962;2023-04-29T21:05:21;101818.94;;;12.11;95.49
49979;BME280;35869;50.990;6.962;2023-04-29T21:10:21;101818.28;;;12.04;95.63
49979;BME280;35869;50.990;6.962;2023-04-29T21:15:21;101822.84;;;11.97;95.78
49979;BME280;35869;50.990;6.962;2023-04-29T21:20:22;101823.97;;;11.89;95.85
49979;BME280;35869;50.990;6.962;2023-04-29T21:25:22;101820.75;;;11.81;95.97
49979;BME280;35869;50.990;6.962;2023-04-29T21:30:22;101824.53;;;11.70;96.35
49979;BME280;35869;50.990;6.962;2023-04-29T21:35:23;101833.50;;;11.62;96.57
49979;BME280;35869;50.990;6.962;2023-04-29T21:40:23;101827.69;;;11.52;96.35
49979;BME280;35869;50.990;6.962;2023-04-29T21:45:23;101829.63;;;11.45;96.25
49979;BME280;35869;50.990;6.962;2023-04-29T21:50:23;101836.06;;;11.34;96.33
49979;BME280;35869;50.990;6.962;2023-04-29T21:55:23;101835.53;;;11.23;97.25
49979;BME280;35869;50.990;6.962;2023-04-29T22:00:24;101838.38;;;11.13;98.30
49979;BME280;35869;50.990;6.962;2023-04-29T22:05:24;101850.75;;;11.05;97.31
49979;BME280;35869;50.990;6.962;2023-04-29T22:10:24;101845.81;;;10.96;97.49
49979;BME280;35869;50.990;6.962;2023-04-29T22:15:25;101853.22;;;10.79;97.84
49979;BME280;35869;50.990;6.962;2023-04-29T22:20:25;101853.38;;;10.73;97.65
49979;BME280;35869;50.990;6.962;2023-04-29T22:25:25;101855.13;;;10.74;99.03
49979;BME280;35869;50.990;6.962;2023-04-29T22:30:25;101857.31;;;10.56;99.27
49979;BME280;35869;50.990;6.962;2023-04-29T22:35:25;101862.56;;;10.53;98.34
49979;BME280;35869;50.990;6.962;2023-04-29T22:40:26;101864.31;;;10.53;98.49
49979;BME280;35869;50.990;6.962;2023-04-29T22:45:26;101864.44;;;10.48;98.74
49979;BME280;35869;50.990;6.962;2023-04-29T22:50:26;101874.91;;;10.45;98.26
49979;BME280;35869;50.990;6.962;2023-04-29T22:55:26;101873.44;;;10.35;99.37
49979;BME280;35869;50.990;6.962;2023-04-29T23:00:26;101877.00;;;10.31;98.68
49979;BME280;35869;50.990;6.962;2023-04-29T23:05:27;101875.56;;;10.18;99.21
49979;BME280;35869;50.990;6.962;2023-04-29T23:10:27;101881.75;;;10.12;98.52
49979;BME280;35869;50.990;6.962;2023-04-29T23:15:28;101889.59;;;10.10;98.70
49979;BME280;35869;50.990;6.962;2023-04-29T23:20:28;101885.44;;;10.02;99.03
49979;BME280;35869;50.990;6.962;2023-04-29T23:25:28;101889.91;;;9.97;98.99
49979;BME280;35869;50.990;6.962;2023-04-29T23:30:30;101892.44;;;10.00;97.92
49979;BME280;35869;50.990;6.962;2023-04-29T23:35:30;101884.88;;;9.89;98.73
49979;BME280;35869;50.990;6.962;2023-04-29T23:40:31;101885.97;;;9.79;99.34
49979;BME280;35869;50.990;6.962;2023-04-29T23:45:31;101887.84;;;9.72;100.00
49979;BME280;35869;50.990;6.962;2023-04-29T23:50:31;101894.03;;;9.67;99.62
49979;BME280;35869;50.990;6.962;2023-04-29T23:55:31;101894.09;;;9.64;98.76
